Time;durP1;ratioP1;P1;durP2;ratioP2;P2;SDS_P1;SDS_P2;PMS_P1;PMS_P2;Temp;Humidity;BMP_temperature;BMP_pressure;BME280_temperature;BME280_humidity;BME280_pressure;Samples;Min_cycle;Max_cycle;Signal;HPM_P1;HPM_P2
2021/08/25 00:00:44;;;;;;;;;9.25;5.50;;;;;;;;6304197;22;47297;-72
2021/08/25 00:03:09;;;;;;;;;6.75;5.00;;;;;;;;6276677;22;45295;-72
2021/08/25 00:05:34;;;;;;;;;6.50;4.50;;;;;;;;6304613;22;45196;-72
2021/08/25 00:08:00;;;;;;;;;8.00;7.00;;;;;;;;6304457;22;45336;-72
2021/08/25 00:10:25;;;;;;;;;8.00;8.00;;;;;;;;6304743;22;46108;-73
2021/08/25 00:12:50;;;;;;;;;13.75;9.75;;;;;;;;6304749;22;45283;-73
2021/08/25 00:15:15;;;;;;;;;5.75;5.75;;;;;;;;6304895;22;45321;-73
2021/08/25 00:17:41;;;;;;;;;7.00;5.50;;;;;;;;6304374;22;45404;-72
2021/08/25 00:20:06;;;;;;;;;7.25;7.00;;;;;;;;6304013;22;45252;-72
2021/08/25 00:22:31;;;;;;;;;7.00;7.00;;;;;;;;6304078;22;45246;-72
2021/08/25 00:24:57;;;;;;;;;7.25;6.75;;;;;;;;6276660;22;45225;-72
2021/08/25 00:27:22;;;;;;;;;10.75;7.50;;;;;;;;6304437;22;45279;-72
2021/08/25 00:29:47;;;;;;;;;6.50;6.50;;;;;;;;6304447;22;45466;-73
2021/08/25 00:32:12;;;;;;;;;10.75;8.25;;;;;;;;6276499;22;45357;-72
2021/08/25 00:34:37;;;;;;;;;8.50;5.50;;;;;;;;6303804;22;45247;-72
2021/08/25 00:37:03;;;;;;;;;8.75;7.75;;;;;;;;6304342;22;45181;-73
2021/08/25 00:39:28;;;;;;;;;10.00;8.50;;;;;;;;6304759;22;46194;-72
2021/08/25 00:41:53;;;;;;;;;9.25;7.00;;;;;;;;6304745;22;45354;-72
2021/08/25 00:44:18;;;;;;;;;6.00;6.00;;;;;;;;6304886;22;45252;-73
2021/08/25 00:46:45;;;;;;;;;9.00;7.75;;;;;;;;6304825;22;45390;-73
2021/08/25 00:49:11;;;;;;;;;7.50;5.75;;;;;;;;6304121;22;46061;-73
2021/08/25 00:51:37;;;;;;;;;7.50;7.25;;;;;;;;6276239;22;45275;-72
2021/08/25 00:54:02;;;;;;;;;4.25;2.75;;;;;;;;6304025;22;45224;-72
2021/08/25 00:56:27;;;;;;;;;8.25;7.25;;;;;;;;6304783;22;45368;-72
2021/08/25 00:58:52;;;;;;;;;5.00;5.00;;;;;;;;6304281;22;45210;-72
2021/08/25 01:01:26;;;;;;;;;5.00;5.00;;;;;;;;6303760;22;45268;-72
2021/08/25 01:03:58;;;;;;;;;7.25;6.25;;;;;;;;6304288;22;45221;-72
2021/08/25 01:06:25;;;;;;;;;10.00;7.50;;;;;;;;6304633;22;45229;-72
2021/08/25 01:08:50;;;;;;;;;7.75;7.00;;;;;;;;6304285;22;46536;-72
2021/08/25 01:11:15;;;;;;;;;8.00;7.50;;;;;;;;6304391;22;45265;-72
2021/08/25 01:13:41;;;;;;;;;8.00;8.00;;;;;;;;6304248;22;45262;-73
2021/08/25 01:16:06;;;;;;;;;10.25;9.00;;;;;;;;6304158;22;45264;-72
2021/08/25 01:18:32;;;;;;;;;11.50;10.00;;;;;;;;6304694;22;45262;-72
2021/08/25 01:20:59;;;;;;;;;9.75;7.00;;;;;;;;6303172;22;45264;-72
2021/08/25 01:23:25;;;;;;;;;9.50;8.75;;;;;;;;6304098;22;45343;-72
2021/08/25 01:25:53;;;;;;;;;10.00;8.25;;;;;;;;6304714;22;45320;-72
2021/08/25 01:28:20;;;;;;;;;9.00;9.00;;;;;;;;6303990;22;46086;-72
2021/08/25 01:30:46;;;;;;;;;9.00;9.00;;;;;;;;6275919;22;45352;-72
2021/08/25 01:33:24;;;;;;;;;10.75;8.50;;;;;;;;6304066;22;45237;-71
2021/08/25 01:35:50;;;;;;;;;13.75;12.75;;;;;;;;6304384;22;45419;-71
2021/08/25 01:38:37;;;;;;;;;7.50;7.50;;;;;;;;6304132;22;45671;-71
2021/08/25 01:41:02;;;;;;;;;8.50;8.50;;;;;;;;6304256;22;45430;-71
2021/08/25 01:43:28;;;;;;;;;10.25;6.50;;;;;;;;6304106;22;45302;-72
2021/08/25 01:45:53;;;;;;;;;9.00;9.00;;;;;;;;6303769;22;45386;-71
2021/08/25 01:48:18;;;;;;;;;8.75;8.75;;;;;;;;6304334;22;45388;-72
2021/08/25 01:50:43;;;;;;;;;9.00;8.00;;;;;;;;6304315;22;45241;-71
2021/08/25 01:53:08;;;;;;;;;8.00;7.75;;;;;;;;6304446;22;45307;-72
2021/08/25 01:55:34;;;;;;;;;5.75;4.75;;;;;;;;6303693;22;45239;-72
2021/08/25 01:57:59;;;;;;;;;10.00;8.75;;;;;;;;6303821;22;45494;-72
2021/08/25 02:00:24;;;;;;;;;8.75;6.50;;;;;;;;6303691;22;45253;-71
2021/08/25 02:02:49;;;;;;;;;8.00;8.00;;;;;;;;6304100;22;45502;-70
2021/08/25 02:05:14;;;;;;;;;6.25;6.25;;;;;;;;6303567;22;45457;-72
2021/08/25 02:07:40;;;;;;;;;10.25;9.25;;;;;;;;6304063;22;45937;-71
2021/08/25 02:10:05;;;;;;;;;7.00;7.00;;;;;;;;6303784;22;45410;-72
2021/08/25 02:12:30;;;;;;;;;9.75;8.00;;;;;;;;6303912;22;45293;-71
2021/08/25 02:14:55;;;;;;;;;12.00;11.25;;;;;;;;6303210;22;45296;-70
2021/08/25 02:17:21;;;;;;;;;9.00;9.00;;;;;;;;6303940;22;45285;-72
2021/08/25 02:19:46;;;;;;;;;9.75;6.75;;;;;;;;6303488;22;45378;-72
2021/08/25 02:22:11;;;;;;;;;8.00;7.50;;;;;;;;6276207;22;45242;-72
2021/08/25 02:24:36;;;;;;;;;9.50;8.50;;;;;;;;6303664;22;45357;-72
2021/08/25 02:27:02;;;;;;;;;8.50;7.50;;;;;;;;6303361;22;45527;-72
2021/08/25 02:29:27;;;;;;;;;5.75;5.75;;;;;;;;6302958;22;45298;-73
2021/08/25 02:31:52;;;;;;;;;4.50;4.50;;;;;;;;6304541;22;45259;-72
2021/08/25 02:34:17;;;;;;;;;10.00;7.00;;;;;;;;6304866;22;45266;-72
2021/08/25 02:36:42;;;;;;;;;9.50;7.00;;;;;;;;6305206;22;45406;-72
2021/08/25 02:39:08;;;;;;;;;10.75;9.50;;;;;;;;6304774;22;45733;-72
2021/08/25 02:41:33;;;;;;;;;10.00;9.75;;;;;;;;6305479;22;45155;-72
2021/08/25 02:43:58;;;;;;;;;6.25;6.25;;;;;;;;6276786;22;45240;-72
2021/08/25 02:46:23;;;;;;;;;9.75;9.25;;;;;;;;6305318;22;45370;-72
2021/08/25 02:48:49;;;;;;;;;12.50;10.75;;;;;;;;6305355;22;45603;-72
2021/08/25 02:51:14;;;;;;;;;9.75;8.00;;;;;;;;6305043;22;45285;-72
2021/08/25 02:53:39;;;;;;;;;9.00;8.00;;;;;;;;6305237;22;45279;-72
2021/08/25 02:56:05;;;;;;;;;9.50;9.50;;;;;;;;6304326;22;45254;-72
2021/08/25 02:58:30;;;;;;;;;7.50;7.50;;;;;;;;6305003;22;45379;-72
2021/08/25 03:00:55;;;;;;;;;8.00;7.75;;;;;;;;6305360;22;45601;-72
2021/08/25 03:03:21;;;;;;;;;8.50;8.50;;;;;;;;6304643;22;45199;-72
2021/08/25 03:05:46;;;;;;;;;8.50;7.25;;;;;;;;6304931;22;45300;-72
2021/08/25 03:08:11;;;;;;;;;9.50;9.50;;;;;;;;6304845;22;45218;-71
2021/08/25 03:10:37;;;;;;;;;10.50;9.00;;;;;;;;6304682;22;45297;-72
2021/08/25 03:13:02;;;;;;;;;12.00;10.25;;;;;;;;6304426;22;45351;-71
2021/08/25 03:15:27;;;;;;;;;10.00;7.25;;;;;;;;6304480;22;45337;-71
2021/08/25 03:17:52;;;;;;;;;9.00;8.75;;;;;;;;6304142;22;45221;-71
2021/08/25 03:20:17;;;;;;;;;9.75;9.00;;;;;;;;6304760;22;45238;-72
2021/08/25 03:22:43;;;;;;;;;8.50;8.50;;;;;;;;6304166;22;45388;-71
2021/08/25 03:25:09;;;;;;;;;8.25;8.00;;;;;;;;6304963;22;45397;-72
2021/08/25 03:27:34;;;;;;;;;12.25;8.75;;;;;;;;6303732;22;45321;-71
2021/08/25 03:29:59;;;;;;;;;10.75;10.00;;;;;;;;6304830;22;45375;-71
2021/08/25 03:32:24;;;;;;;;;8.50;8.00;;;;;;;;6304396;22;45411;-71
2021/08/25 03:34:49;;;;;;;;;8.75;8.75;;;;;;;;6304275;22;46071;-72
2021/08/25 03:37:15;;;;;;;;;10.75;8.50;;;;;;;;6305046;22;45361;-72
2021/08/25 03:39:40;;;;;;;;;9.25;9.25;;;;;;;;6304988;22;45327;-72
2021/08/25 03:42:08;;;;;;;;;11.25;11.25;;;;;;;;6303622;22;45230;-71
2021/08/25 03:44:34;;;;;;;;;7.75;7.25;;;;;;;;6303604;22;46812;-70
2021/08/25 03:46:59;;;;;;;;;16.00;10.00;;;;;;;;6304371;22;45174;-72
2021/08/25 03:49:24;;;;;;;;;11.25;9.75;;;;;;;;6304080;22;45146;-72
2021/08/25 03:51:49;;;;;;;;;14.25;9.25;;;;;;;;6304649;22;45336;-72
2021/08/25 03:54:14;;;;;;;;;9.50;9.25;;;;;;;;6303906;22;46063;-73
2021/08/25 03:56:40;;;;;;;;;14.25;13.00;;;;;;;;6303297;22;45286;-72
2021/08/25 03:59:05;;;;;;;;;16.25;13.75;;;;;;;;6304683;22;45262;-72
2021/08/25 04:01:30;;;;;;;;;27.00;27.00;;;;;;;;6304648;22;45300;-72
2021/08/25 04:03:55;;;;;;;;;14.00;14.00;;;;;;;;6304025;22;46216;-72
2021/08/25 04:06:21;;;;;;;;;13.00;11.75;;;;;;;;6304888;22;45230;-72
2021/08/25 04:08:46;;;;;;;;;12.25;11.25;;;;;;;;6276591;22;45256;-72
2021/08/25 04:11:16;;;;;;;;;15.00;12.75;;;;;;;;6303618;22;45751;-71
2021/08/25 04:13:41;;;;;;;;;12.25;9.75;;;;;;;;6303320;22;46665;-70
2021/08/25 04:16:07;;;;;;;;;15.00;13.25;;;;;;;;6303587;22;45277;-72
2021/08/25 04:18:32;;;;;;;;;12.50;11.25;;;;;;;;6304761;22;45293;-71
2021/08/25 04:20:57;;;;;;;;;13.00;10.75;;;;;;;;6304324;22;45405;-70
2021/08/25 04:23:22;;;;;;;;;9.75;9.75;;;;;;;;6303986;22;45289;-72
2021/08/25 04:25:47;;;;;;;;;10.75;10.00;;;;;;;;6275546;22;45426;-72
2021/08/25 04:28:13;;;;;;;;;10.00;10.00;;;;;;;;6304138;22;45174;-71
2021/08/25 04:30:38;;;;;;;;;13.00;9.75;;;;;;;;6303962;22;45346;-72
2021/08/25 04:33:03;;;;;;;;;10.50;10.50;;;;;;;;6303758;22;47023;-71
2021/08/25 04:35:28;;;;;;;;;13.00;11.75;;;;;;;;6303932;22;45237;-71
2021/08/25 04:37:54;;;;;;;;;12.00;11.25;;;;;;;;6304411;22;45224;-72
2021/08/25 04:40:19;;;;;;;;;10.50;10.50;;;;;;;;6275635;22;45310;-72
2021/08/25 04:42:44;;;;;;;;;10.50;9.50;;;;;;;;6303762;22;46397;-71
2021/08/25 04:45:09;;;;;;;;;13.25;13.25;;;;;;;;6303803;22;45213;-72
2021/08/25 04:47:35;;;;;;;;;10.25;9.50;;;;;;;;6303826;22;45221;-71
2021/08/25 04:50:00;;;;;;;;;14.00;14.00;;;;;;;;6303723;22;45439;-72
2021/08/25 04:52:25;;;;;;;;;12.00;10.50;;;;;;;;6304062;22;45344;-72
2021/08/25 04:54:50;;;;;;;;;13.25;11.50;;;;;;;;6302427;22;45382;-72
2021/08/25 04:57:15;;;;;;;;;10.75;10.75;;;;;;;;6303327;22;45176;-73
2021/08/25 04:59:41;;;;;;;;;12.00;10.00;;;;;;;;6303112;22;45358;-71
2021/08/25 05:02:06;;;;;;;;;12.50;10.50;;;;;;;;6303446;22;45301;-71
2021/08/25 05:04:31;;;;;;;;;13.50;13.50;;;;;;;;6303433;22;45358;-72
2021/08/25 05:06:56;;;;;;;;;15.25;12.50;;;;;;;;6303553;22;45342;-72
2021/08/25 05:09:21;;;;;;;;;14.75;13.75;;;;;;;;6302868;22;45174;-72
2021/08/25 05:11:46;;;;;;;;;7.50;7.50;;;;;;;;6303383;22;45288;-71
2021/08/25 05:14:12;;;;;;;;;17.25;13.25;;;;;;;;6303762;22;45765;-72
2021/08/25 05:16:37;;;;;;;;;10.50;10.25;;;;;;;;6303897;22;45298;-72
2021/08/25 05:19:02;;;;;;;;;12.00;10.00;;;;;;;;6303054;22;45503;-71
2021/08/25 05:21:27;;;;;;;;;14.50;13.00;;;;;;;;6303899;22;45444;-71
2021/08/25 05:23:53;;;;;;;;;13.00;11.75;;;;;;;;6303133;22;45342;-72
2021/08/25 05:26:19;;;;;;;;;14.25;11.75;;;;;;;;6303395;22;45352;-70
2021/08/25 05:28:45;;;;;;;;;17.75;16.50;;;;;;;;6303385;22;45294;-71
2021/08/25 05:31:10;;;;;;;;;15.50;14.50;;;;;;;;6301691;22;46245;-71
2021/08/25 05:33:35;;;;;;;;;11.50;11.50;;;;;;;;6302692;22;45278;-70
2021/08/25 05:36:00;;;;;;;;;13.25;13.25;;;;;;;;6302357;22;45202;-71
2021/08/25 05:38:26;;;;;;;;;17.00;13.50;;;;;;;;6301725;22;45660;-70
2021/08/25 05:40:51;;;;;;;;;16.25;12.50;;;;;;;;6301541;22;46224;-70
2021/08/25 05:43:17;;;;;;;;;11.50;11.50;;;;;;;;6302173;22;45331;-71
2021/08/25 05:45:42;;;;;;;;;16.50;13.75;;;;;;;;6302013;22;45282;-71
2021/08/25 05:48:08;;;;;;;;;14.50;13.00;;;;;;;;6302129;22;45377;-72
2021/08/25 05:50:33;;;;;;;;;12.75;12.50;;;;;;;;6302402;22;45972;-71
2021/08/25 05:52:58;;;;;;;;;11.75;11.50;;;;;;;;6302199;22;45167;-71
2021/08/25 05:55:23;;;;;;;;;21.25;17.25;;;;;;;;6303088;22;45225;-71
2021/08/25 05:57:48;;;;;;;;;16.75;14.75;;;;;;;;6302870;22;45205;-71
2021/08/25 06:00:14;;;;;;;;;18.25;15.50;;;;;;;;6301977;22;47001;-73
2021/08/25 06:02:40;;;;;;;;;16.25;11.25;;;;;;;;6301682;22;45361;-72
2021/08/25 06:05:05;;;;;;;;;15.00;13.75;;;;;;;;6275337;22;45409;-72
2021/08/25 06:07:30;;;;;;;;;22.25;17.00;;;;;;;;6301729;22;45383;-72
2021/08/25 06:09:55;;;;;;;;;13.50;13.50;;;;;;;;6301653;22;46446;-71
2021/08/25 06:12:21;;;;;;;;;17.00;16.50;;;;;;;;6302894;22;45241;-70
2021/08/25 06:14:46;;;;;;;;;12.00;10.75;;;;;;;;6302574;22;45238;-70
2021/08/25 06:17:11;;;;;;;;;18.25;16.25;;;;;;;;6302849;22;45176;-70
2021/08/25 06:19:36;;;;;;;;;14.50;10.75;;;;;;;;6301625;22;45991;-70
2021/08/25 06:22:02;;;;;;;;;17.75;16.75;;;;;;;;6302070;22;45342;-70
2021/08/25 06:24:27;;;;;;;;;16.75;16.50;;;;;;;;6302300;22;45694;-70
2021/08/25 06:26:53;;;;;;;;;16.00;12.25;;;;;;;;6300906;22;45333;-69
2021/08/25 06:29:18;;;;;;;;;13.75;13.75;;;;;;;;6301076;22;46051;-70
2021/08/25 06:31:43;;;;;;;;;16.50;14.00;;;;;;;;6301592;22;45294;-72
2021/08/25 06:34:09;;;;;;;;;11.75;11.50;;;;;;;;6301532;22;45458;-72
2021/08/25 06:36:34;;;;;;;;;12.75;12.00;;;;;;;;6297097;22;45304;-71
2021/08/25 06:38:59;;;;;;;;;15.25;14.25;;;;;;;;6273437;22;46165;-72
2021/08/25 06:41:24;;;;;;;;;15.00;9.00;;;;;;;;6301369;22;45366;-71
2021/08/25 06:43:49;;;;;;;;;12.50;12.00;;;;;;;;6301523;22;45283;-71
2021/08/25 06:46:16;;;;;;;;;11.75;11.00;;;;;;;;6301710;22;45411;-71
2021/08/25 06:48:42;;;;;;;;;12.50;11.00;;;;;;;;6301421;22;47017;-71
2021/08/25 06:51:07;;;;;;;;;13.00;12.75;;;;;;;;6300617;22;45433;-72
2021/08/25 06:53:33;;;;;;;;;13.75;11.50;;;;;;;;6273067;22;45194;-71
2021/08/25 06:55:58;;;;;;;;;9.75;9.50;;;;;;;;6300853;22;45406;-70
2021/08/25 06:58:26;;;;;;;;;16.50;13.50;;;;;;;;6300754;22;45391;-68
2021/08/25 07:00:52;;;;;;;;;13.50;12.50;;;;;;;;6301787;22;45253;-71
2021/08/25 07:03:17;;;;;;;;;15.50;12.25;;;;;;;;6301288;22;45586;-70
2021/08/25 07:05:42;;;;;;;;;17.00;13.00;;;;;;;;6297288;22;45352;-70
2021/08/25 07:08:07;;;;;;;;;13.75;12.00;;;;;;;;6298747;22;46098;-71
2021/08/25 07:10:32;;;;;;;;;18.00;15.00;;;;;;;;6299392;22;45285;-71
2021/08/25 07:12:58;;;;;;;;;9.00;8.50;;;;;;;;6301220;22;45234;-71
2021/08/25 07:15:23;;;;;;;;;15.00;14.25;;;;;;;;6272978;22;45230;-71
2021/08/25 07:17:48;;;;;;;;;9.00;9.00;;;;;;;;6300030;22;45983;-71
2021/08/25 07:20:14;;;;;;;;;11.50;11.50;;;;;;;;6302828;22;45265;-71
2021/08/25 07:22:39;;;;;;;;;12.75;10.75;;;;;;;;6302803;22;45293;-71
2021/08/25 07:25:05;;;;;;;;;9.00;9.00;;;;;;;;6302209;22;45297;-71
2021/08/25 07:27:31;;;;;;;;;19.50;15.25;;;;;;;;6299233;22;46028;-70
2021/08/25 07:29:56;;;;;;;;;9.25;9.25;;;;;;;;6302112;22;45236;-71
2021/08/25 07:32:21;;;;;;;;;8.25;8.25;;;;;;;;6301569;22;45342;-71
2021/08/25 07:34:46;;;;;;;;;9.50;8.25;;;;;;;;6302368;22;45584;-70
2021/08/25 07:37:11;;;;;;;;;10.75;9.00;;;;;;;;6297798;22;46066;-70
2021/08/25 07:39:37;;;;;;;;;10.50;9.00;;;;;;;;6301881;22;45365;-71
2021/08/25 07:42:02;;;;;;;;;9.50;9.50;;;;;;;;6302808;22;45315;-70
2021/08/25 07:44:27;;;;;;;;;8.50;8.50;;;;;;;;6303310;22;45485;-70
2021/08/25 07:46:55;;;;;;;;;10.75;9.50;;;;;;;;6274418;22;46276;-70
2021/08/25 07:49:21;;;;;;;;;10.50;10.50;;;;;;;;6301433;22;45153;-71
2021/08/25 07:51:46;;;;;;;;;13.25;12.25;;;;;;;;6302822;22;45577;-70
2021/08/25 07:54:11;;;;;;;;;11.25;10.25;;;;;;;;6302985;22;45383;-70
2021/08/25 07:56:37;;;;;;;;;13.50;8.50;;;;;;;;6302522;22;47050;-70
2021/08/25 07:59:02;;;;;;;;;8.25;7.25;;;;;;;;6302971;22;45546;-70
2021/08/25 08:01:28;;;;;;;;;10.25;8.25;;;;;;;;6302988;22;45927;-69
2021/08/25 08:03:53;;;;;;;;;7.75;7.75;;;;;;;;6302969;22;45400;-70
2021/08/25 08:06:19;;;;;;;;;10.00;7.25;;;;;;;;6302028;22;45988;-70
2021/08/25 08:08:44;;;;;;;;;8.75;8.75;;;;;;;;6302353;22;45315;-70
2021/08/25 08:11:09;;;;;;;;;11.00;9.00;;;;;;;;6303301;22;45286;-70
2021/08/25 08:13:35;;;;;;;;;16.25;9.75;;;;;;;;6302514;22;45380;-69
2021/08/25 08:16:01;;;;;;;;;8.50;8.50;;;;;;;;6274326;22;48970;-70
2021/08/25 08:18:38;;;;;;;;;8.25;8.25;;;;;;;;6301671;22;45451;-69
2021/08/25 08:21:03;;;;;;;;;11.25;10.75;;;;;;;;6302285;22;45089;-69
2021/08/25 08:23:28;;;;;;;;;7.50;7.50;;;;;;;;6302894;22;45387;-70
2021/08/25 08:25:54;;;;;;;;;10.00;7.25;;;;;;;;6302636;22;46411;-70
2021/08/25 08:28:20;;;;;;;;;8.00;8.00;;;;;;;;6301844;22;45447;-69
2021/08/25 08:30:45;;;;;;;;;10.75;9.50;;;;;;;;6302578;22;45249;-70
2021/08/25 08:33:10;;;;;;;;;13.50;12.50;;;;;;;;6301974;22;45400;-70
2021/08/25 08:35:37;;;;;;;;;9.00;8.25;;;;;;;;6301828;22;46348;-70
2021/08/25 08:38:05;;;;;;;;;8.00;6.25;;;;;;;;6301245;22;45267;-70
2021/08/25 08:40:31;;;;;;;;;10.50;9.00;;;;;;;;6302212;22;45406;-69
2021/08/25 08:43:02;;;;;;;;;8.25;8.25;;;;;;;;6302829;22;45468;-70
2021/08/25 08:45:29;;;;;;;;;9.25;9.25;;;;;;;;6302482;22;46147;-69
2021/08/25 08:47:54;;;;;;;;;12.25;9.25;;;;;;;;6302603;22;45235;-69
2021/08/25 08:50:19;;;;;;;;;6.75;5.75;;;;;;;;6302636;22;45181;-69
2021/08/25 08:52:44;;;;;;;;;9.25;9.25;;;;;;;;6298339;22;45387;-69
2021/08/25 08:55:10;;;;;;;;;9.50;6.50;;;;;;;;6274691;22;45857;-69
2021/08/25 08:57:35;;;;;;;;;8.00;8.00;;;;;;;;6302832;22;45296;-69
2021/08/25 09:00:00;;;;;;;;;9.50;9.00;;;;;;;;6301652;22;45257;-70
2021/08/25 09:02:42;;;;;;;;;10.00;9.25;;;;;;;;6302291;22;45442;-70
2021/08/25 09:05:17;;;;;;;;;8.50;8.25;;;;;;;;6302110;22;46186;-69
2021/08/25 09:07:49;;;;;;;;;9.00;7.50;;;;;;;;6300941;22;45769;-69
2021/08/25 09:10:19;;;;;;;;;11.00;9.75;;;;;;;;6301727;22;45242;-69
2021/08/25 09:12:51;;;;;;;;;9.00;8.00;;;;;;;;6302401;22;45404;-69
2021/08/25 09:15:20;;;;;;;;;9.50;8.25;;;;;;;;6301096;22;46463;-69
2021/08/25 09:17:46;;;;;;;;;12.00;10.75;;;;;;;;6302471;22;45313;-69
2021/08/25 09:20:11;;;;;;;;;8.50;8.50;;;;;;;;6302537;22;45317;-69
2021/08/25 09:22:37;;;;;;;;;9.25;9.25;;;;;;;;6301016;22;45458;-69
2021/08/25 09:25:02;;;;;;;;;11.75;11.75;;;;;;;;6302452;22;45412;-69
2021/08/25 09:27:27;;;;;;;;;7.25;7.00;;;;;;;;6299974;22;45292;-69
2021/08/25 09:29:55;;;;;;;;;6.00;5.67;;;;;;;;6301896;22;45195;-69
2021/08/25 09:32:21;;;;;;;;;6.67;6.00;;;;;;;;6301105;22;45258;-69
2021/08/25 09:34:52;;;;;;;;;6.67;6.00;;;;;;;;6302103;22;47786;-69
2021/08/25 09:37:17;;;;;;;;;8.00;8.00;;;;;;;;6302317;22;45187;-69
2021/08/25 09:39:43;;;;;;;;;4.67;4.67;;;;;;;;6302541;22;45217;-69
2021/08/25 09:42:08;;;;;;;;;11.00;9.25;;;;;;;;6301778;22;45224;-69
2021/08/25 09:44:34;;;;;;;;;6.67;6.67;;;;;;;;6302001;22;45145;-69
2021/08/25 09:46:59;;;;;;;;;11.00;8.67;;;;;;;;6302379;22;45198;-69
2021/08/25 09:49:24;;;;;;;;;7.00;6.00;;;;;;;;6302536;22;45242;-70
2021/08/25 09:51:51;;;;;;;;;8.67;8.67;;;;;;;;6302462;22;45202;-69
2021/08/25 09:54:18;;;;;;;;;7.33;7.33;;;;;;;;6301371;22;47104;-70
2021/08/25 09:56:44;;;;;;;;;10.67;9.67;;;;;;;;6301927;22;45336;-70
2021/08/25 09:59:10;;;;;;;;;9.67;7.67;;;;;;;;6301604;22;45358;-69
2021/08/25 10:01:36;;;;;;;;;7.33;7.33;;;;;;;;6301629;22;45488;-69
2021/08/25 10:04:06;;;;;;;;;6.33;6.33;;;;;;;;6301620;22;46095;-68
2021/08/25 10:06:31;;;;;;;;;8.00;7.00;;;;;;;;6302165;22;45284;-68
2021/08/25 10:08:57;;;;;;;;;7.00;7.00;;;;;;;;6301863;22;45344;-68
2021/08/25 10:11:28;;;;;;;;;8.67;6.67;;;;;;;;6301829;22;45476;-69
2021/08/25 10:13:53;;;;;;;;;7.33;5.67;;;;;;;;6300375;22;45299;-69
2021/08/25 10:16:38;;;;;;;;;6.33;6.33;;;;;;;;6302414;22;45213;-70
2021/08/25 10:19:22;;;;;;;;;9.67;9.00;;;;;;;;6301317;22;45146;-69
2021/08/25 10:21:48;;;;;;;;;7.00;5.00;;;;;;;;6301751;22;45300;-70
2021/08/25 10:24:13;;;;;;;;;11.33;11.33;;;;;;;;6300255;22;45999;-69
2021/08/25 10:26:56;;;;;;;;;7.67;7.67;;;;;;;;6301594;22;45354;-70
2021/08/25 10:29:22;;;;;;;;;6.00;6.00;;;;;;;;6301789;22;45292;-68
2021/08/25 10:31:51;;;;;;;;;8.50;8.00;;;;;;;;6301914;22;45282;-68
2021/08/25 10:34:21;;;;;;;;;5.67;5.67;;;;;;;;6301144;22;46116;-70
2021/08/25 10:36:46;;;;;;;;;6.00;6.00;;;;;;;;6301751;22;45367;-70
2021/08/25 10:39:30;;;;;;;;;9.67;7.33;;;;;;;;6301486;22;45766;-68
2021/08/25 10:41:56;;;;;;;;;7.67;6.67;;;;;;;;6301467;22;45366;-68
2021/08/25 10:44:51;;;;;;;;;7.33;6.33;;;;;;;;6298533;22;45998;-67
2021/08/25 10:47:17;;;;;;;;;9.00;9.00;;;;;;;;6273639;22;45445;-69
2021/08/25 10:49:44;;;;;;;;;10.67;10.00;;;;;;;;6300941;22;45302;-69
2021/08/25 10:52:15;;;;;;;;;13.00;9.00;;;;;;;;6301379;22;45203;-69
2021/08/25 10:54:40;;;;;;;;;18.75;16.75;;;;;;;;6302952;22;46114;-69
2021/08/25 10:57:07;;;;;;;;;46.25;38.00;;;;;;;;6301352;22;45333;-70
2021/08/25 10:59:32;;;;;;;;;39.25;32.75;;;;;;;;6302858;22;45269;-69
2021/08/25 11:01:59;;;;;;;;;54.75;44.50;;;;;;;;6302600;22;45365;-70
2021/08/25 11:04:25;;;;;;;;;14.00;14.00;;;;;;;;6302362;22;47163;-69
2021/08/25 11:06:54;;;;;;;;;23.75;21.50;;;;;;;;6302082;22;45342;-69
2021/08/25 11:09:21;;;;;;;;;10.67;10.33;;;;;;;;6302554;22;45244;-69
2021/08/25 11:11:52;;;;;;;;;11.67;10.33;;;;;;;;6302262;22;45323;-68
2021/08/25 11:14:18;;;;;;;;;14.25;13.00;;;;;;;;6302226;22;46116;-68
2021/08/25 11:16:44;;;;;;;;;8.33;8.33;;;;;;;;6303045;22;45420;-68
2021/08/25 11:19:18;;;;;;;;;9.00;9.00;;;;;;;;6302498;22;45383;-68
2021/08/25 11:21:43;;;;;;;;;12.00;10.67;;;;;;;;6303054;22;45421;-68
2021/08/25 11:24:09;;;;;;;;;8.67;7.33;;;;;;;;6302018;22;47060;-70
2021/08/25 11:26:34;;;;;;;;;11.33;9.00;;;;;;;;6301304;22;45265;-69
2021/08/25 11:28:59;;;;;;;;;7.67;7.67;;;;;;;;6302567;22;45264;-69
2021/08/25 11:31:25;;;;;;;;;7.67;7.67;;;;;;;;6302343;22;45279;-69
2021/08/25 11:33:51;;;;;;;;;9.33;9.33;;;;;;;;6301925;22;46816;-70
2021/08/25 11:36:16;;;;;;;;;6.33;6.33;;;;;;;;6302325;22;45584;-73
2021/08/25 11:38:41;;;;;;;;;7.00;6.67;;;;;;;;6302343;22;45392;-70
2021/08/25 11:41:06;;;;;;;;;6.00;6.00;;;;;;;;6302199;22;45429;-71
2021/08/25 11:43:34;;;;;;;;;7.67;5.00;;;;;;;;6300937;22;46043;-72
2021/08/25 11:45:59;;;;;;;;;5.67;5.67;;;;;;;;6301644;22;45218;-72
2021/08/25 11:48:28;;;;;;;;;7.33;6.00;;;;;;;;6301874;22;45199;-73
2021/08/25 11:50:54;;;;;;;;;6.00;6.00;;;;;;;;6302617;22;45446;-70
2021/08/25 11:53:21;;;;;;;;;6.67;6.67;;;;;;;;6296212;22;45299;-72
2021/08/25 11:55:47;;;;;;;;;10.00;7.67;;;;;;;;6302299;22;45353;-71
2021/08/25 11:58:26;;;;;;;;;5.33;5.33;;;;;;;;6302789;22;45206;-72
2021/08/25 12:00:52;;;;;;;;;8.33;8.33;;;;;;;;6302964;22;45221;-72
2021/08/25 12:03:17;;;;;;;;;7.00;6.00;;;;;;;;6302858;22;45240;-71
2021/08/25 12:05:53;;;;;;;;;7.67;6.00;;;;;;;;6301366;22;45266;-71
2021/08/25 12:08:18;;;;;;;;;5.67;5.33;;;;;;;;6301517;22;45283;-72
2021/08/25 12:10:45;;;;;;;;;4.67;4.00;;;;;;;;6302744;22;45425;-72
2021/08/25 12:13:30;;;;;;;;;9.33;8.33;;;;;;;;6302466;22;47165;-72
2021/08/25 12:15:55;;;;;;;;;6.67;6.67;;;;;;;;6302658;22;45358;-72
2021/08/25 12:18:22;;;;;;;;;6.33;6.33;;;;;;;;6303183;22;45222;-72
2021/08/25 12:20:48;;;;;;;;;6.00;6.00;;;;;;;;6301923;22;45406;-71
2021/08/25 12:23:15;;;;;;;;;7.67;7.67;;;;;;;;6301724;22;45933;-72
2021/08/25 12:25:42;;;;;;;;;6.00;6.00;;;;;;;;6302103;22;45165;-71
2021/08/25 12:28:11;;;;;;;;;8.00;8.00;;;;;;;;6302796;22;45271;-70
2021/08/25 12:30:37;;;;;;;;;4.67;4.67;;;;;;;;6303480;22;45396;-70
2021/08/25 12:33:05;;;;;;;;;7.00;7.00;;;;;;;;6301225;22;46310;-72
2021/08/25 12:35:30;;;;;;;;;7.33;7.33;;;;;;;;6300952;22;45292;-73
2021/08/25 12:37:56;;;;;;;;;2.67;1.67;;;;;;;;6301190;22;45303;-72
2021/08/25 12:40:22;;;;;;;;;5.00;5.00;;;;;;;;6302575;22;45294;-72
2021/08/25 12:42:48;;;;;;;;;4.33;4.33;;;;;;;;6302422;22;46232;-72
2021/08/25 12:45:13;;;;;;;;;4.33;4.33;;;;;;;;6302196;22;45826;-72
2021/08/25 12:47:39;;;;;;;;;6.33;5.33;;;;;;;;6303232;22;45303;-72
2021/08/25 12:50:04;;;;;;;;;7.00;6.00;;;;;;;;6301912;22;45428;-70
2021/08/25 12:52:29;;;;;;;;;6.00;6.00;;;;;;;;6301422;22;47156;-72
2021/08/25 12:54:54;;;;;;;;;6.25;6.00;;;;;;;;6302405;22;45296;-71
2021/08/25 12:57:20;;;;;;;;;6.75;5.00;;;;;;;;6302528;22;45344;-69
2021/08/25 12:59:47;;;;;;;;;6.25;6.25;;;;;;;;6273345;22;45568;-71
2021/08/25 13:02:12;;;;;;;;;4.75;4.75;;;;;;;;6302166;22;46958;-71
2021/08/25 13:04:38;;;;;;;;;5.50;4.25;;;;;;;;6274580;22;45285;-71
2021/08/25 13:07:03;;;;;;;;;7.00;6.00;;;;;;;;6301835;22;45303;-70
2021/08/25 13:09:28;;;;;;;;;5.75;4.75;;;;;;;;6302394;22;45326;-74
2021/08/25 13:11:53;;;;;;;;;5.50;5.25;;;;;;;;6302174;22;45299;-71
2021/08/25 13:14:19;;;;;;;;;6.00;6.00;;;;;;;;6302437;22;45211;-73
2021/08/25 13:16:44;;;;;;;;;5.00;4.00;;;;;;;;6301699;22;45295;-72
2021/08/25 13:19:09;;;;;;;;;5.00;4.25;;;;;;;;6302322;22;45165;-72
2021/08/25 13:21:34;;;;;;;;;5.25;4.25;;;;;;;;6301209;22;46030;-71
2021/08/25 13:24:00;;;;;;;;;6.00;6.00;;;;;;;;6301115;22;45311;-71
2021/08/25 13:26:26;;;;;;;;;6.00;6.00;;;;;;;;6302175;22;45397;-72
2021/08/25 13:28:52;;;;;;;;;5.25;5.25;;;;;;;;6301155;22;45160;-72
2021/08/25 13:31:17;;;;;;;;;5.50;5.50;;;;;;;;6301173;22;46186;-73
2021/08/25 13:33:44;;;;;;;;;5.50;5.50;;;;;;;;6302825;22;45364;-70
2021/08/25 13:36:09;;;;;;;;;5.00;5.00;;;;;;;;6301486;22;45323;-70
2021/08/25 13:38:34;;;;;;;;;6.50;5.25;;;;;;;;6302079;22;45672;-71
2021/08/25 13:41:00;;;;;;;;;6.25;6.25;;;;;;;;6302089;22;46903;-72
2021/08/25 13:43:25;;;;;;;;;7.50;6.75;;;;;;;;6302638;22;45273;-72
2021/08/25 13:45:50;;;;;;;;;8.25;6.00;;;;;;;;6302552;22;45288;-71
2021/08/25 13:48:15;;;;;;;;;5.75;5.75;;;;;;;;6302061;22;45293;-72
2021/08/25 13:50:41;;;;;;;;;7.00;6.00;;;;;;;;6301168;22;46270;-73
2021/08/25 13:53:06;;;;;;;;;6.75;6.50;;;;;;;;6301639;22;45339;-70
2021/08/25 13:55:31;;;;;;;;;6.75;5.25;;;;;;;;6302607;22;45430;-69
2021/08/25 13:57:57;;;;;;;;;5.00;5.00;;;;;;;;6302242;22;45487;-70
2021/08/25 14:00:22;;;;;;;;;8.00;5.75;;;;;;;;6301713;22;46351;-72
2021/08/25 14:02:49;;;;;;;;;7.50;7.50;;;;;;;;6301976;22;45407;-71
2021/08/25 14:05:14;;;;;;;;;7.00;6.00;;;;;;;;6301184;22;45268;-70
2021/08/25 14:07:39;;;;;;;;;6.25;6.25;;;;;;;;6301467;22;45419;-71
2021/08/25 14:10:06;;;;;;;;;7.00;7.00;;;;;;;;6301920;22;45296;-73
2021/08/25 14:12:31;;;;;;;;;6.75;6.75;;;;;;;;6301435;22;45240;-72
2021/08/25 14:14:58;;;;;;;;;5.50;5.50;;;;;;;;6302428;22;45208;-70
2021/08/25 14:17:23;;;;;;;;;7.25;5.75;;;;;;;;6302497;22;45378;-72
2021/08/25 14:19:48;;;;;;;;;6.00;6.00;;;;;;;;6300630;22;45826;-72
2021/08/25 14:22:13;;;;;;;;;5.75;4.25;;;;;;;;6301514;22;45355;-72
2021/08/25 14:24:39;;;;;;;;;7.00;7.00;;;;;;;;6301631;22;45225;-70
2021/08/25 14:27:04;;;;;;;;;7.75;6.75;;;;;;;;6301407;22;45475;-70